sensor_id;sensor_type;location;lat;lon;timestamp;pressure;altitude;pressure_sealevel;temperature;humidity
55687;BME280;41911;52.362;4.978;2023-04-26T00:00:18;101962.13;;;5.97;41.17
55687;BME280;41911;52.362;4.978;2023-04-26T00:00:49;101961.94;;;6.15;41.33
55687;BME280;41911;52.362;4.978;2023-04-26T00:01:20;101962.99;;;5.67;40.97
55687;BME280;41911;52.362;4.978;2023-04-26T00:01:51;101962.46;;;5.57;40.98
55687;BME280;41911;52.362;4.978;2023-04-26T00:02:22;101962.48;;;5.53;40.82
55687;BME280;41911;52.362;4.978;2023-04-26T00:02:53;101962.97;;;5.82;40.62
55687;BME280;41911;52.362;4.978;2023-04-26T00:03:24;101964.00;;;6.01;40.75
55687;BME280;41911;52.362;4.978;2023-04-26T00:03:55;101962.99;;;5.67;40.91
55687;BME280;41911;52.362;4.978;2023-04-26T00:04:26;101964.16;;;5.82;41.51
55687;BME280;41911;52.362;4.978;2023-04-26T00:04:58;101962.07;;;6.00;41.54
55687;BME280;41911;52.362;4.978;2023-04-26T00:05:29;101965.42;;;6.17;40.86
55687;BME280;41911;52.362;4.978;2023-04-26T00:06:00;101965.70;;;6.14;41.19
55687;BME280;41911;52.362;4.978;2023-04-26T00:06:31;101966.09;;;6.25;41.23
55687;BME280;41911;52.362;4.978;2023-04-26T00:07:02;101965.13;;;5.72;41.10
55687;BME280;41911;52.362;4.978;2023-04-26T00:07:33;101964.28;;;5.62;40.75
55687;BME280;41911;52.362;4.978;2023-04-26T00:08:04;101966.10;;;5.44;41.42
55687;BME280;41911;52.362;4.978;2023-04-26T00:08:35;101968.40;;;5.20;41.66
55687;BME280;41911;52.362;4.978;2023-04-26T00:09:06;101967.29;;;5.60;41.50
55687;BME280;41911;52.362;4.978;2023-04-26T00:09:37;101967.15;;;5.80;41.07
55687;BME280;41911;52.362;4.978;2023-04-26T00:10:09;101965.63;;;5.77;41.19
55687;BME280;41911;52.362;4.978;2023-04-26T00:10:40;101967.83;;;5.92;41.51
55687;BME280;41911;52.362;4.978;2023-04-26T00:11:10;101965.83;;;5.51;41.45
55687;BME280;41911;52.362;4.978;2023-04-26T00:11:41;101966.52;;;5.98;41.66
55687;BME280;41911;52.362;4.978;2023-04-26T00:12:12;101968.90;;;6.21;41.81
55687;BME280;41911;52.362;4.978;2023-04-26T00:12:43;101968.85;;;6.00;41.13
55687;BME280;41911;52.362;4.978;2023-04-26T00:13:14;101970.11;;;5.90;41.30
55687;BME280;41911;52.362;4.978;2023-04-26T00:13:45;101971.13;;;5.95;41.29
55687;BME280;41911;52.362;4.978;2023-04-26T00:14:16;101971.44;;;5.80;41.43
55687;BME280;41911;52.362;4.978;2023-04-26T00:14:48;101972.32;;;5.24;41.56
55687;BME280;41911;52.362;4.978;2023-04-26T00:15:18;101972.29;;;5.00;41.81
55687;BME280;41911;52.362;4.978;2023-04-26T00:15:49;101972.98;;;5.50;41.77
55687;BME280;41911;52.362;4.978;2023-04-26T00:16:20;101972.41;;;5.86;41.90
55687;BME280;41911;52.362;4.978;2023-04-26T00:16:51;101971.38;;;5.52;41.06
55687;BME280;41911;52.362;4.978;2023-04-26T00:17:23;101970.40;;;5.89;40.92
55687;BME280;41911;52.362;4.978;2023-04-26T00:17:54;101975.24;;;5.56;41.80
55687;BME280;41911;52.362;4.978;2023-04-26T00:18:25;101974.21;;;5.94;41.50
55687;BME280;41911;52.362;4.978;2023-04-26T00:18:56;101973.14;;;5.73;41.29
55687;BME280;41911;52.362;4.978;2023-04-26T00:19:26;101973.60;;;5.83;41.42
55687;BME280;41911;52.362;4.978;2023-04-26T00:19:57;101972.76;;;5.93;41.03
55687;BME280;41911;52.362;4.978;2023-04-26T00:20:28;101973.34;;;6.22;40.34
55687;BME280;41911;52.362;4.978;2023-04-26T00:20:59;101974.71;;;6.39;39.92
55687;BME280;41911;52.362;4.978;2023-04-26T00:21:30;101972.94;;;6.52;39.76
55687;BME280;41911;52.362;4.978;2023-04-26T00:22:01;101974.91;;;6.08;39.94
55687;BME280;41911;52.362;4.978;2023-04-26T00:22:32;101973.48;;;5.85;40.33
55687;BME280;41911;52.362;4.978;2023-04-26T00:23:03;101972.64;;;6.08;40.06
55687;BME280;41911;52.362;4.978;2023-04-26T00:23:39;101971.43;;;5.80;40.03
55687;BME280;41911;52.362;4.978;2023-04-26T00:24:10;101969.61;;;5.87;39.86
55687;BME280;41911;52.362;4.978;2023-04-26T00:24:41;101968.91;;;6.45;40.27
55687;BME280;41911;52.362;4.978;2023-04-26T00:25:13;101968.55;;;5.93;40.26
55687;BME280;41911;52.362;4.978;2023-04-26T00:25:44;101966.52;;;6.24;40.24
55687;BME280;41911;52.362;4.978;2023-04-26T00:26:15;101967.60;;;6.49;40.28
55687;BME280;41911;52.362;4.978;2023-04-26T00:26:45;101967.29;;;5.73;40.31
55687;BME280;41911;52.362;4.978;2023-04-26T00:27:16;101965.78;;;6.16;40.94
55687;BME280;41911;52.362;4.978;2023-04-26T00:27:47;101963.48;;;6.23;40.74
55687;BME280;41911;52.362;4.978;2023-04-26T00:28:18;101965.34;;;5.72;40.70
55687;BME280;41911;52.362;4.978;2023-04-26T00:28:49;101963.50;;;6.06;41.16
55687;BME280;41911;52.362;4.978;2023-04-26T00:29:20;101959.81;;;5.57;40.94
55687;BME280;41911;52.362;4.978;2023-04-26T00:29:51;101959.53;;;5.53;41.10
55687;BME280;41911;52.362;4.978;2023-04-26T00:30:22;101961.08;;;5.60;40.68
55687;BME280;41911;52.362;4.978;2023-04-26T00:30:53;101961.24;;;5.69;40.56
55687;BME280;41911;52.362;4.978;2023-04-26T00:31:24;101961.56;;;5.50;41.32
55687;BME280;41911;52.362;4.978;2023-04-26T00:31:55;101959.79;;;5.72;41.65
55687;BME280;41911;52.362;4.978;2023-04-26T00:32:32;101961.49;;;5.84;40.82
55687;BME280;41911;52.362;4.978;2023-04-26T00:33:03;101961.00;;;6.28;40.27
55687;BME280;41911;52.362;4.978;2023-04-26T00:33:34;101960.42;;;5.88;40.19
55687;BME280;41911;52.362;4.978;2023-04-26T00:34:05;101957.17;;;5.90;41.03
55687;BME280;41911;52.362;4.978;2023-04-26T00:34:37;101961.15;;;5.40;41.57
55687;BME280;41911;52.362;4.978;2023-04-26T00:35:08;101959.21;;;5.16;41.83
55687;BME280;41911;52.362;4.978;2023-04-26T00:35:39;101959.01;;;5.91;41.47
55687;BME280;41911;52.362;4.978;2023-04-26T00:36:12;101958.41;;;5.66;41.63
55687;BME280;41911;52.362;4.978;2023-04-26T00:36:43;101960.11;;;5.62;41.71
55687;BME280;41911;52.362;4.978;2023-04-26T00:37:14;101959.33;;;6.00;41.39
55687;BME280;41911;52.362;4.978;2023-04-26T00:37:45;101959.09;;;5.82;41.75
55687;BME280;41911;52.362;4.978;2023-04-26T00:38:15;101959.20;;;5.93;41.50
55687;BME280;41911;52.362;4.978;2023-04-26T00:38:47;101959.80;;;5.88;41.52
55687;BME280;41911;52.362;4.978;2023-04-26T00:39:18;101960.20;;;5.61;41.84
55687;BME280;41911;52.362;4.978;2023-04-26T00:39:49;101960.49;;;6.02;41.17
55687;BME280;41911;52.362;4.978;2023-04-26T00:40:21;101962.98;;;5.69;41.67
55687;BME280;41911;52.362;4.978;2023-04-26T00:40:52;101961.89;;;5.70;41.48
55687;BME280;41911;52.362;4.978;2023-04-26T00:41:23;101960.63;;;5.75;41.14
55687;BME280;41911;52.362;4.978;2023-04-26T00:41:54;101959.61;;;5.97;41.65
55687;BME280;41911;52.362;4.978;2023-04-26T00:42:26;101961.12;;;5.76;41.36
55687;BME280;41911;52.362;4.978;2023-04-26T00:42:57;101960.39;;;5.67;41.96
55687;BME280;41911;52.362;4.978;2023-04-26T00:43:28;101961.89;;;6.06;41.32
55687;BME280;41911;52.362;4.978;2023-04-26T00:43:59;101962.67;;;6.10;40.86
55687;BME280;41911;52.362;4.978;2023-04-26T00:44:30;101962.78;;;5.70;41.60
55687;BME280;41911;52.362;4.978;2023-04-26T00:45:01;101961.42;;;5.61;41.98
55687;BME280;41911;52.362;4.978;2023-04-26T00:45:33;101959.71;;;6.13;41.77
55687;BME280;41911;52.362;4.978;2023-04-26T00:46:05;101960.53;;;5.66;41.32
55687;BME280;41911;52.362;4.978;2023-04-26T00:46:36;101961.58;;;5.78;41.04
55687;BME280;41911;52.362;4.978;2023-04-26T00:47:07;101959.67;;;5.95;40.47
55687;BME280;41911;52.362;4.978;2023-04-26T00:47:39;101960.68;;;6.36;41.00
55687;BME280;41911;52.362;4.978;2023-04-26T00:48:10;101960.07;;;5.88;40.48
55687;BME280;41911;52.362;4.978;2023-04-26T00:48:41;101958.82;;;5.92;40.05
55687;BME280;41911;52.362;4.978;2023-04-26T00:49:15;101958.00;;;5.83;40.18
55687;BME280;41911;52.362;4.978;2023-04-26T00:49:46;101957.53;;;6.07;40.97
55687;BME280;41911;52.362;4.978;2023-04-26T00:50:18;101958.59;;;5.66;41.42
55687;BME280;41911;52.362;4.978;2023-04-26T00:50:50;101958.06;;;5.69;41.28
55687;BME280;41911;52.362;4.978;2023-04-26T00:51:21;101960.03;;;6.31;40.92
55687;BME280;41911;52.362;4.978;2023-04-26T00:51:52;101956.98;;;5.46;41.14
55687;BME280;41911;52.362;4.978;2023-04-26T00:52:24;101955.81;;;6.16;40.84
55687;BME280;41911;52.362;4.978;2023-04-26T00:52:56;101955.58;;;6.00;40.71
55687;BME280;41911;52.362;4.978;2023-04-26T00:53:27;101955.79;;;6.21;40.84
55687;BME280;41911;52.362;4.978;2023-04-26T00:53:59;101953.88;;;5.58;40.82
55687;BME280;41911;52.362;4.978;2023-04-26T00:54:30;101954.27;;;5.60;41.25
55687;BME280;41911;52.362;4.978;2023-04-26T00:55:01;101953.49;;;5.87;41.23
55687;BME280;41911;52.362;4.978;2023-04-26T00:55:33;101952.10;;;5.51;41.35
55687;BME280;41911;52.362;4.978;2023-04-26T00:56:06;101951.17;;;5.47;41.54
55687;BME280;41911;52.362;4.978;2023-04-26T00:56:39;101952.62;;;5.54;41.76
55687;BME280;41911;52.362;4.978;2023-04-26T00:57:11;101953.28;;;5.48;41.67
55687;BME280;41911;52.362;4.978;2023-04-26T00:57:43;101953.01;;;5.85;41.65
55687;BME280;41911;52.362;4.978;2023-04-26T00:58:14;101953.07;;;5.61;41.34
55687;BME280;41911;52.362;4.978;2023-04-26T00:58:45;101952.25;;;5.67;41.57
55687;BME280;41911;52.362;4.978;2023-04-26T00:59:18;101954.49;;;5.76;41.93
55687;BME280;41911;52.362;4.978;2023-04-26T00:59:49;101953.09;;;5.69;42.08
55687;BME280;41911;52.362;4.978;2023-04-26T01:00:20;101953.71;;;6.13;42.22
55687;BME280;41911;52.362;4.978;2023-04-26T01:00:51;101954.26;;;5.55;42.69
55687;BME280;41911;52.362;4.978;2023-04-26T01:01:24;101953.39;;;5.43;42.64
55687;BME280;41911;52.362;4.978;2023-04-26T01:01:55;101954.94;;;5.92;42.73
55687;BME280;41911;52.362;4.978;2023-04-26T01:02:26;101955.23;;;5.34;42.64
55687;BME280;41911;52.362;4.978;2023-04-26T01:02:57;101954.24;;;5.41;42.67
55687;BME280;41911;52.362;4.978;2023-04-26T01:03:28;101953.33;;;5.77;42.28
55687;BME280;41911;52.362;4.978;2023-04-26T01:03:59;101952.96;;;5.81;42.26
55687;BME280;41911;52.362;4.978;2023-04-26T01:04:30;101951.34;;;5.56;42.32
55687;BME280;41911;52.362;4.978;2023-04-26T01:05:01;101951.71;;;6.31;41.72
55687;BME280;41911;52.362;4.978;2023-04-26T01:05:32;101951.56;;;5.68;41.77
55687;BME280;41911;52.362;4.978;2023-04-26T01:06:03;101953.22;;;5.77;41.62
55687;BME280;41911;52.362;4.978;2023-04-26T01:06:34;101953.93;;;5.81;41.59
55687;BME280;41911;52.362;4.978;2023-04-26T01:07:06;101952.97;;;5.65;42.03
55687;BME280;41911;52.362;4.978;2023-04-26T01:08:22;101952.26;;;6.34;41.98
55687;BME280;41911;52.362;4.978;2023-04-26T01:08:56;101952.89;;;5.90;42.18
55687;BME280;41911;52.362;4.978;2023-04-26T01:09:31;101954.94;;;5.99;42.03
55687;BME280;41911;52.362;4.978;2023-04-26T01:10:02;101953.33;;;5.95;42.12
55687;BME280;41911;52.362;4.978;2023-04-26T01:10:34;101955.48;;;5.76;41.98
55687;BME280;41911;52.362;4.978;2023-04-26T01:11:05;101954.00;;;5.70;42.24
55687;BME280;41911;52.362;4.978;2023-04-26T01:11:36;101954.55;;;5.59;42.37
55687;BME280;41911;52.362;4.978;2023-04-26T01:12:08;101954.54;;;5.96;42.20
55687;BME280;41911;52.362;4.978;2023-04-26T01:12:39;101953.21;;;5.63;42.68
55687;BME280;41911;52.362;4.978;2023-04-26T01:13:10;101956.44;;;5.66;42.98
55687;BME280;41911;52.362;4.978;2023-04-26T01:13:43;101955.24;;;5.65;42.73
55687;BME280;41911;52.362;4.978;2023-04-26T01:14:14;101954.26;;;5.57;43.14
55687;BME280;41911;52.362;4.978;2023-04-26T01:14:46;101952.38;;;5.55;42.76
55687;BME280;41911;52.362;4.978;2023-04-26T01:15:17;101955.36;;;5.71;42.85
55687;BME280;41911;52.362;4.978;2023-04-26T01:15:48;101955.86;;;5.62;42.59
55687;BME280;41911;52.362;4.978;2023-04-26T01:16:19;101952.92;;;5.69;42.10
55687;BME280;41911;52.362;4.978;2023-04-26T01:16:50;101951.70;;;5.43;42.16
55687;BME280;41911;52.362;4.978;2023-04-26T01:17:21;101954.17;;;5.49;42.49
55687;BME280;41911;52.362;4.978;2023-04-26T01:17:52;101952.93;;;5.31;42.83
55687;BME280;41911;52.362;4.978;2023-04-26T01:18:23;101954.50;;;5.65;42.83
55687;BME280;41911;52.362;4.978;2023-04-26T01:18:54;101953.63;;;5.66;42.44
55687;BME280;41911;52.362;4.978;2023-04-26T01:19:25;101955.38;;;5.43;42.22
55687;BME280;41911;52.362;4.978;2023-04-26T01:19:56;101956.04;;;6.05;42.34
55687;BME280;41911;52.362;4.978;2023-04-26T01:20:27;101954.35;;;5.54;42.66
55687;BME280;41911;52.362;4.978;2023-04-26T01:20:57;101956.85;;;6.11;42.15
55687;BME280;41911;52.362;4.978;2023-04-26T01:21:28;101955.25;;;5.62;41.62
55687;BME280;41911;52.362;4.978;2023-04-26T01:22:01;101954.39;;;5.97;41.43
55687;BME280;41911;52.362;4.978;2023-04-26T01:22:32;101954.98;;;5.51;41.88
55687;BME280;41911;52.362;4.978;2023-04-26T01:23:03;101953.75;;;5.78;41.94
55687;BME280;41911;52.362;4.978;2023-04-26T01:23:34;101954.24;;;5.88;41.75
55687;BME280;41911;52.362;4.978;2023-04-26T01:24:08;101955.95;;;5.85;41.80
55687;BME280;41911;52.362;4.978;2023-04-26T01:24:41;101957.16;;;5.83;41.82
55687;BME280;41911;52.362;4.978;2023-04-26T01:25:13;101957.19;;;6.26;41.94
55687;BME280;41911;52.362;4.978;2023-04-26T01:25:45;101958.47;;;5.61;42.02
55687;BME280;41911;52.362;4.978;2023-04-26T01:26:18;101956.03;;;5.56;42.31
55687;BME280;41911;52.362;4.978;2023-04-26T01:26:49;101957.20;;;5.53;42.52
55687;BME280;41911;52.362;4.978;2023-04-26T01:27:20;101958.58;;;5.63;42.41
55687;BME280;41911;52.362;4.978;2023-04-26T01:27:51;101958.30;;;6.29;42.31
55687;BME280;41911;52.362;4.978;2023-04-26T01:28:22;101958.73;;;5.75;42.67
55687;BME280;41911;52.362;4.978;2023-04-26T01:28:53;101960.50;;;5.72;43.09
55687;BME280;41911;52.362;4.978;2023-04-26T01:29:24;101961.23;;;5.84;43.02
55687;BME280;41911;52.362;4.978;2023-04-26T01:29:55;101961.48;;;5.95;43.03
55687;BME280;41911;52.362;4.978;2023-04-26T01:30:26;101960.83;;;5.49;43.25
55687;BME280;41911;52.362;4.978;2023-04-26T01:30:57;101960.80;;;6.20;43.16
55687;BME280;41911;52.362;4.978;2023-04-26T01:31:27;101961.29;;;6.05;42.95
55687;BME280;41911;52.362;4.978;2023-04-26T01:31:58;101964.40;;;6.09;42.81
55687;BME280;41911;52.362;4.978;2023-04-26T01:32:29;101961.55;;;6.30;42.85
55687;BME280;41911;52.362;4.978;2023-04-26T01:33:00;101962.50;;;5.73;42.78
55687;BME280;41911;52.362;4.978;2023-04-26T01:33:31;101960.19;;;5.94;42.70
55687;BME280;41911;52.362;4.978;2023-04-26T01:34:02;101960.34;;;5.42;43.23
55687;BME280;41911;52.362;4.978;2023-04-26T01:34:33;101960.67;;;5.52;43.12
55687;BME280;41911;52.362;4.978;2023-04-26T01:35:05;101961.81;;;5.97;42.68
55687;BME280;41911;52.362;4.978;2023-04-26T01:35:36;101960.09;;;5.62;43.03
55687;BME280;41911;52.362;4.978;2023-04-26T01:36:08;101960.97;;;6.05;43.07
55687;BME280;41911;52.362;4.978;2023-04-26T01:36:39;101962.34;;;5.62;43.48
55687;BME280;41911;52.362;4.978;2023-04-26T01:37:11;101964.29;;;5.70;43.30
55687;BME280;41911;52.362;4.978;2023-04-26T01:37:42;101963.71;;;5.86;43.53
55687;BME280;41911;52.362;4.978;2023-04-26T01:38:13;101962.24;;;5.40;43.19
55687;BME280;41911;52.362;4.978;2023-04-26T01:38:44;101964.97;;;5.61;43.28
55687;BME280;41911;52.362;4.978;2023-04-26T01:39:15;101968.81;;;5.35;43.31
55687;BME280;41911;52.362;4.978;2023-04-26T01:39:46;101966.35;;;5.50;43.09
55687;BME280;41911;52.362;4.978;2023-04-26T01:40:17;101968.61;;;5.88;43.08
55687;BME280;41911;52.362;4.978;2023-04-26T01:40:48;101968.19;;;5.48;42.65
55687;BME280;41911;52.362;4.978;2023-04-26T01:41:19;101969.46;;;5.68;43.08
55687;BME280;41911;52.362;4.978;2023-04-26T01:41:49;101966.44;;;5.70;42.99
55687;BME280;41911;52.362;4.978;2023-04-26T01:42:20;101969.74;;;5.81;43.42
55687;BME280;41911;52.362;4.978;2023-04-26T01:42:51;101968.67;;;5.89;43.81
55687;BME280;41911;52.362;4.978;2023-04-26T01:43:22;101968.30;;;5.27;43.99
55687;BME280;41911;52.362;4.978;2023-04-26T01:43:53;101971.59;;;5.14;44.11
55687;BME280;41911;52.362;4.978;2023-04-26T01:44:24;101969.38;;;5.56;43.48
55687;BME280;41911;52.362;4.978;2023-04-26T01:44:55;101968.30;;;5.52;43.60
55687;BME280;41911;52.362;4.978;2023-04-26T01:45:26;101966.63;;;5.34;43.85
55687;BME280;41911;52.362;4.978;2023-04-26T01:45:57;101966.15;;;5.36;44.03
55687;BME280;41911;52.362;4.978;2023-04-26T01:46:28;101964.77;;;5.34;44.08
55687;BME280;41911;52.362;4.978;2023-04-26T01:46:59;101963.85;;;4.97;44.09
55687;BME280;41911;52.362;4.978;2023-04-26T01:47:30;101961.06;;;5.64;44.21
55687;BME280;41911;52.362;4.978;2023-04-26T01:48:01;101959.99;;;5.30;44.24
55687;BME280;41911;52.362;4.978;2023-04-26T01:48:32;101959.43;;;5.01;44.39
55687;BME280;41911;52.362;4.978;2023-04-26T01:49:03;101960.44;;;5.02;44.36
55687;BME280;41911;52.362;4.978;2023-04-26T01:49:34;101958.28;;;5.65;44.12
55687;BME280;41911;52.362;4.978;2023-04-26T01:50:06;101957.88;;;5.68;44.30
55687;BME280;41911;52.362;4.978;2023-04-26T01:50:38;101957.33;;;4.90;44.47
55687;BME280;41911;52.362;4.978;2023-04-26T01:51:09;101955.88;;;5.55;44.40
55687;BME280;41911;52.362;4.978;2023-04-26T01:51:40;101959.18;;;5.51;44.43
55687;BME280;41911;52.362;4.978;2023-04-26T01:52:11;101956.80;;;5.06;44.41
55687;BME280;41911;52.362;4.978;2023-04-26T01:52:42;101959.95;;;5.04;44.38
55687;BME280;41911;52.362;4.978;2023-04-26T01:53:13;101959.38;;;5.14;44.08
55687;BME280;41911;52.362;4.978;2023-04-26T01:53:44;101956.82;;;5.14;44.10
55687;BME280;41911;52.362;4.978;2023-04-26T01:54:15;101957.90;;;5.44;44.01
55687;BME280;41911;52.362;4.978;2023-04-26T01:54:46;101956.50;;;4.95;43.86
55687;BME280;41911;52.362;4.978;2023-04-26T01:55:17;101955.06;;;5.21;43.65
55687;BME280;41911;52.362;4.978;2023-04-26T01:55:47;101955.57;;;5.19;43.88
55687;BME280;41911;52.362;4.978;2023-04-26T01:56:19;101957.16;;;5.10;44.09
55687;BME280;41911;52.362;4.978;2023-04-26T01:56:50;101957.64;;;5.10;44.13
55687;BME280;41911;52.362;4.978;2023-04-26T01:57:21;101956.77;;;4.78;44.25
55687;BME280;41911;52.362;4.978;2023-04-26T01:57:52;101955.84;;;5.46;44.12
55687;BME280;41911;52.362;4.978;2023-04-26T01:58:23;101953.58;;;5.48;43.79
55687;BME280;41911;52.362;4.978;2023-04-26T01:58:54;101953.08;;;5.17;43.39
55687;BME280;41911;52.362;4.978;2023-04-26T01:59:25;101951.93;;;5.39;43.14
55687;BME280;41911;52.362;4.978;2023-04-26T01:59:57;101954.23;;;5.45;43.20
55687;BME280;41911;52.362;4.978;2023-04-26T02:00:28;101953.71;;;4.80;43.15
55687;BME280;41911;52.362;4.978;2023-04-26T02:01:05;101956.16;;;5.16;43.08
55687;BME280;41911;52.362;4.978;2023-04-26T02:01:37;101956.92;;;4.84;43.49
55687;BME280;41911;52.362;4.978;2023-04-26T02:02:08;101955.94;;;4.82;43.79
55687;BME280;41911;52.362;4.978;2023-04-26T02:02:39;101955.70;;;5.30;43.86
55687;BME280;41911;52.362;4.978;2023-04-26T02:03:10;101956.54;;;5.04;44.19
55687;BME280;41911;52.362;4.978;2023-04-26T02:03:41;101955.75;;;4.99;44.37
55687;BME280;41911;52.362;4.978;2023-04-26T02:04:12;101958.16;;;5.13;44.44
55687;BME280;41911;52.362;4.978;2023-04-26T02:04:43;101956.11;;;5.30;44.43
55687;BME280;41911;52.362;4.978;2023-04-26T02:05:14;101955.68;;;5.21;44.38
55687;BME280;41911;52.362;4.978;2023-04-26T02:05:45;101957.13;;;4.85;44.32
55687;BME280;41911;52.362;4.978;2023-04-26T02:06:16;101959.02;;;5.29;44.24
55687;BME280;41911;52.362;4.978;2023-04-26T02:06:46;101958.32;;;4.99;44.34
55687;BME280;41911;52.362;4.978;2023-04-26T02:07:17;101958.80;;;4.95;44.43
55687;BME280;41911;52.362;4.978;2023-04-26T02:07:48;101959.84;;;4.96;44.44
55687;BME280;41911;52.362;4.978;2023-04-26T02:08:20;101961.55;;;5.28;44.43
55687;BME280;41911;52.362;4.978;2023-04-26T02:08:51;101963.27;;;5.32;44.26
55687;BME280;41911;52.362;4.978;2023-04-26T02:09:22;101963.57;;;5.24;43.99
55687;BME280;41911;52.362;4.978;2023-04-26T02:09:53;101961.60;;;5.18;44.36
55687;BME280;41911;52.362;4.978;2023-04-26T02:10:24;101966.11;;;4.48;44.51
55687;BME280;41911;52.362;4.978;2023-04-26T02:10:55;101965.08;;;5.07;44.46
55687;BME280;41911;52.362;4.978;2023-04-26T02:11:26;101962.81;;;4.80;43.94
55687;BME280;41911;52.362;4.978;2023-04-26T02:11:57;101963.49;;;4.65;43.99
55687;BME280;41911;52.362;4.978;2023-04-26T02:12:28;101963.11;;;4.86;44.33
55687;BME280;41911;52.362;4.978;2023-04-26T02:12:59;101962.59;;;5.18;44.37
55687;BME280;41911;52.362;4.978;2023-04-26T02:13:30;101963.03;;;5.16;44.39
55687;BME280;41911;52.362;4.978;2023-04-26T02:14:01;101963.17;;;4.86;44.13
55687;BME280;41911;52.362;4.978;2023-04-26T02:14:32;101961.58;;;4.86;43.79
55687;BME280;41911;52.362;4.978;2023-04-26T02:15:04;101963.70;;;5.35;43.15
55687;BME280;41911;52.362;4.978;2023-04-26T02:15:35;101959.66;;;5.18;43.22
55687;BME280;41911;52.362;4.978;2023-04-26T02:16:06;101961.30;;;5.16;43.33
55687;BME280;41911;52.362;4.978;2023-04-26T02:16:38;101962.05;;;5.11;43.95
55687;BME280;41911;52.362;4.978;2023-04-26T02:17:09;101959.14;;;4.80;43.64
55687;BME280;41911;52.362;4.978;2023-04-26T02:17:40;101959.57;;;4.67;43.92
55687;BME280;41911;52.362;4.978;2023-04-26T02:18:11;101959.89;;;4.88;44.19
55687;BME280;41911;52.362;4.978;2023-04-26T02:18:42;101961.44;;;4.93;44.06
55687;BME280;41911;52.362;4.978;2023-04-26T02:19:13;101961.08;;;4.73;44.20
55687;BME280;41911;52.362;4.978;2023-04-26T02:19:44;101961.78;;;5.02;44.42
55687;BME280;41911;52.362;4.978;2023-04-26T02:20:15;101962.29;;;5.02;44.34
55687;BME280;41911;52.362;4.978;2023-04-26T02:20:46;101961.34;;;5.01;44.15
55687;BME280;41911;52.362;4.978;2023-04-26T02:21:17;101961.84;;;4.77;43.90
55687;BME280;41911;52.362;4.978;2023-04-26T02:21:50;101962.77;;;5.00;44.04
55687;BME280;41911;52.362;4.978;2023-04-26T02:22:22;101963.74;;;5.01;43.84
55687;BME280;41911;52.362;4.978;2023-04-26T02:22:53;101959.64;;;4.97;43.98
55687;BME280;41911;52.362;4.978;2023-04-26T02:23:24;101961.33;;;4.97;44.18
55687;BME280;41911;52.362;4.978;2023-04-26T02:23:55;101964.02;;;4.84;44.54
55687;BME280;41911;52.362;4.978;2023-04-26T02:24:26;101963.46;;;4.89;44.66
55687;BME280;41911;52.362;4.978;2023-04-26T02:24:57;101964.77;;;4.90;44.40
55687;BME280;41911;52.362;4.978;2023-04-26T02:25:28;101962.62;;;4.62;44.61
55687;BME280;41911;52.362;4.978;2023-04-26T02:25:58;101962.81;;;4.84;44.75
55687;BME280;41911;52.362;4.978;2023-04-26T02:26:29;101962.40;;;4.86;44.87
55687;BME280;41911;52.362;4.978;2023-04-26T02:27:01;101962.79;;;4.86;44.85
55687;BME280;41911;52.362;4.978;2023-04-26T02:27:32;101962.22;;;4.84;44.98
55687;BME280;41911;52.362;4.978;2023-04-26T02:28:03;101964.06;;;4.88;45.12
55687;BME280;41911;52.362;4.978;2023-04-26T02:28:34;101962.25;;;4.82;45.04
55687;BME280;41911;52.362;4.978;2023-04-26T02:29:05;101963.36;;;4.90;45.02
55687;BME280;41911;52.362;4.978;2023-04-26T02:29:36;101963.46;;;4.90;44.98
55687;BME280;41911;52.362;4.978;2023-04-26T02:30:08;101962.13;;;4.55;44.97
55687;BME280;41911;52.362;4.978;2023-04-26T02:30:39;101961.36;;;4.92;45.01
55687;BME280;41911;52.362;4.978;2023-04-26T02:31:10;101962.24;;;4.26;45.02
55687;BME280;41911;52.362;4.978;2023-04-26T02:31:41;101962.28;;;4.84;44.98
55687;BME280;41911;52.362;4.978;2023-04-26T02:32:12;101962.46;;;4.87;45.15
55687;BME280;41911;52.362;4.978;2023-04-26T02:32:43;101960.63;;;4.87;45.09
55687;BME280;41911;52.362;4.978;2023-04-26T02:33:13;101958.12;;;4.86;45.07
55687;BME280;41911;52.362;4.978;2023-04-26T02:33:44;101959.12;;;4.88;45.02
55687;BME280;41911;52.362;4.978;2023-04-26T02:34:16;101959.27;;;4.59;44.86
55687;BME280;41911;52.362;4.978;2023-04-26T02:34:46;101960.08;;;4.90;44.97
55687;BME280;41911;52.362;4.978;2023-04-26T02:35:18;101960.17;;;4.86;44.91
55687;BME280;41911;52.362;4.978;2023-04-26T02:35:49;101961.28;;;4.80;44.86
55687;BME280;41911;52.362;4.978;2023-04-26T02:36:19;101958.63;;;4.88;44.94
55687;BME280;41911;52.362;4.978;2023-04-26T02:36:50;101957.80;;;4.88;44.96
55687;BME280;41911;52.362;4.978;2023-04-26T02:37:21;101959.39;;;4.88;44.94
55687;BME280;41911;52.362;4.978;2023-04-26T02:37:52;101959.44;;;4.59;45.09
55687;BME280;41911;52.362;4.978;2023-04-26T02:38:24;101960.24;;;4.87;45.19
55687;BME280;41911;52.362;4.978;2023-04-26T02:38:55;101961.43;;;4.86;45.09
55687;BME280;41911;52.362;4.978;2023-04-26T02:39:26;101961.50;;;4.84;44.90
55687;BME280;41911;52.362;4.978;2023-04-26T02:39:57;101961.14;;;4.84;45.03
55687;BME280;41911;52.362;4.978;2023-04-26T02:40:28;101960.36;;;4.84;45.02
55687;BME280;41911;52.362;4.978;2023-04-26T02:40:59;101958.72;;;4.57;45.08
55687;BME280;41911;52.362;4.978;2023-04-26T02:41:32;101957.41;;;4.87;45.15
55687;BME280;41911;52.362;4.978;2023-04-26T02:42:03;101956.95;;;4.85;44.92
55687;BME280;41911;52.362;4.978;2023-04-26T02:42:38;101954.01;;;4.82;45.02
55687;BME280;41911;52.362;4.978;2023-04-26T02:43:09;101955.38;;;4.78;45.19
55687;BME280;41911;52.362;4.978;2023-04-26T02:43:40;101956.61;;;4.77;44.95
55687;BME280;41911;52.362;4.978;2023-04-26T02:44:11;101955.43;;;4.78;45.06
55687;BME280;41911;52.362;4.978;2023-04-26T02:44:42;101955.36;;;4.83;44.98
55687;BME280;41911;52.362;4.978;2023-04-26T02:45:13;101954.33;;;4.80;45.16
55687;BME280;41911;52.362;4.978;2023-04-26T02:45:44;101956.58;;;4.80;45.11
55687;BME280;41911;52.362;4.978;2023-04-26T02:46:15;101955.57;;;4.75;45.25